createdAt,value
2023-04-19T00:00:12.856Z,2.05
2023-04-19T00:00:35.682Z,2.20
2023-04-19T00:00:59.692Z,2.33
2023-04-19T00:01:23.705Z,2.20
2023-04-19T00:01:46.469Z,2.20
2023-04-19T00:02:10.237Z,2.00
2023-04-19T00:02:34.633Z,2.25
2023-04-19T00:02:57.616Z,2.50
2023-04-19T00:03:20.767Z,2.30
2023-04-19T00:03:43.915Z,2.22
2023-04-19T00:04:08.375Z,2.00
2023-04-19T00:04:31.554Z,2.03
2023-04-19T00:04:55.877Z,2.20
2023-04-19T00:05:20.245Z,2.40
2023-04-19T00:05:43.003Z,2.40
2023-04-19T00:06:08.503Z,2.20
2023-04-19T00:06:32.022Z,2.28
2023-04-19T00:06:54.779Z,2.30
2023-04-19T00:07:18.919Z,2.60
2023-04-19T00:07:41.604Z,2.53
2023-04-19T00:08:04.612Z,2.30
2023-04-19T00:08:27.317Z,2.22
2023-04-19T00:08:50.096Z,2.28
2023-04-19T00:09:15.237Z,2.55
2023-04-19T00:09:37.931Z,2.60
2023-04-19T00:10:02.195Z,2.40
2023-04-19T00:10:24.955Z,2.20
2023-04-19T00:10:47.735Z,2.30
2023-04-19T00:11:10.561Z,2.20
2023-04-19T00:11:33.396Z,2.50
2023-04-19T00:11:56.066Z,2.78
2023-04-19T00:12:18.750Z,2.28
2023-04-19T00:12:41.498Z,2.28
2023-04-19T00:13:04.275Z,2.30
2023-04-19T00:13:26.948Z,2.42
2023-04-19T00:13:49.682Z,2.47
2023-04-19T00:14:12.376Z,2.38
2023-04-19T00:14:35.041Z,2.50
2023-04-19T00:14:57.687Z,2.30
2023-04-19T00:15:20.522Z,2.25
2023-04-19T00:15:43.257Z,2.63
2023-04-19T00:16:07.784Z,2.35
2023-04-19T00:16:30.583Z,2.40
2023-04-19T00:16:53.414Z,2.35
2023-04-19T00:17:19.526Z,2.17
2023-04-19T00:17:42.340Z,2.30
2023-04-19T00:18:05.226Z,2.38
2023-04-19T00:18:27.927Z,2.40
2023-04-19T00:18:50.817Z,2.20
2023-04-19T00:19:13.492Z,2.30
2023-04-19T00:19:36.804Z,2.33
2023-04-19T00:19:59.561Z,2.50
2023-04-19T00:20:22.529Z,2.45
2023-04-19T00:20:49.150Z,2.20
2023-04-19T00:21:11.867Z,2.50
2023-04-19T00:21:34.559Z,2.80
2023-04-19T00:21:57.313Z,2.90
2023-04-19T00:22:22.309Z,2.50
2023-04-19T00:22:47.814Z,2.50
2023-04-19T00:23:10.575Z,2.53
2023-04-19T00:23:33.331Z,2.70
2023-04-19T00:23:55.999Z,2.63
2023-04-19T00:24:18.769Z,2.60
2023-04-19T00:24:44.003Z,2.47
2023-04-19T00:25:08.943Z,2.90
2023-04-19T00:25:32.317Z,2.60
2023-04-19T00:25:55.103Z,2.80
2023-04-19T00:26:17.841Z,2.90
2023-04-19T00:26:42.978Z,2.67
2023-04-19T00:27:05.837Z,2.30
2023-04-19T00:27:28.491Z,2.60
2023-04-19T00:27:51.166Z,2.40
2023-04-19T00:28:13.937Z,2.50
2023-04-19T00:28:36.738Z,2.85
2023-04-19T00:28:59.402Z,2.80
2023-04-19T00:29:24.644Z,2.92
2023-04-19T00:29:47.372Z,2.90
2023-04-19T00:30:11.563Z,2.70
2023-04-19T00:30:34.328Z,2.60
2023-04-19T00:30:57.153Z,3.00
2023-04-19T00:31:19.942Z,2.90
2023-04-19T00:31:42.711Z,2.80
2023-04-19T00:32:06.257Z,2.72
2023-04-19T00:32:28.992Z,2.55
2023-04-19T00:32:51.780Z,2.72
2023-04-19T00:33:14.638Z,2.80
2023-04-19T00:33:37.498Z,2.65
2023-04-19T00:34:00.379Z,2.50
2023-04-19T00:34:25.405Z,2.60
2023-04-19T00:34:48.159Z,2.72
2023-04-19T00:35:11.224Z,2.58
2023-04-19T00:35:34.081Z,2.50
2023-04-19T00:35:56.879Z,2.60
2023-04-19T00:36:19.639Z,2.55
2023-04-19T00:36:42.416Z,2.50
2023-04-19T00:37:05.522Z,2.70
2023-04-19T00:37:28.425Z,2.58
2023-04-19T00:37:51.118Z,2.60
2023-04-19T00:38:13.797Z,2.50
2023-04-19T00:38:36.472Z,2.70
2023-04-19T00:38:59.116Z,2.50
2023-04-19T00:39:21.818Z,2.83
2023-04-19T00:39:44.566Z,3.08
2023-04-19T00:40:10.782Z,2.92
2023-04-19T00:40:33.526Z,3.08
2023-04-19T00:40:56.251Z,3.20
2023-04-19T00:41:18.971Z,3.08
2023-04-19T00:41:41.714Z,3.33
2023-04-19T00:42:04.604Z,2.70
2023-04-19T00:42:27.337Z,2.65
2023-04-19T00:42:50.085Z,2.70
2023-04-19T00:43:12.801Z,2.90
2023-04-19T00:43:35.562Z,2.70
2023-04-19T00:43:58.308Z,2.70
2023-04-19T00:44:21.179Z,2.47
2023-04-19T00:44:44.322Z,2.58
2023-04-19T00:45:09.185Z,2.70
2023-04-19T00:45:32.330Z,2.60
2023-04-19T00:45:55.082Z,2.63
2023-04-19T00:46:18.188Z,2.35
2023-04-19T00:46:43.188Z,2.30
2023-04-19T00:47:06.210Z,2.60
2023-04-19T00:47:29.169Z,2.90
2023-04-19T00:47:52.163Z,2.72
2023-04-19T00:48:14.918Z,2.72
2023-04-19T00:48:39.986Z,2.80
2023-04-19T00:49:02.732Z,2.50
2023-04-19T00:49:25.416Z,2.75
2023-04-19T00:49:48.151Z,2.70
2023-04-19T00:50:11.960Z,2.75
2023-04-19T00:50:36.142Z,2.58
2023-04-19T00:50:58.982Z,2.80
2023-04-19T00:51:21.687Z,2.45
2023-04-19T00:51:44.432Z,2.50
2023-04-19T00:52:08.516Z,2.60
2023-04-19T00:52:31.479Z,2.40
2023-04-19T00:52:54.468Z,2.20
2023-04-19T00:53:19.314Z,2.15
2023-04-19T00:53:42.031Z,2.50
2023-04-19T00:54:04.926Z,2.33
2023-04-19T00:54:30.064Z,2.40
2023-04-19T00:54:52.769Z,2.60
2023-04-19T00:55:17.048Z,2.40
2023-04-19T00:55:39.939Z,2.42
2023-04-19T00:56:03.069Z,2.75
2023-04-19T00:56:25.793Z,2.50
2023-04-19T00:56:48.482Z,2.40
2023-04-19T00:57:11.493Z,2.00
2023-04-19T00:57:34.242Z,2.10
2023-04-19T00:57:56.937Z,2.35
2023-04-19T00:58:19.681Z,2.30
2023-04-19T00:58:42.524Z,2.30
2023-04-19T00:59:06.088Z,2.30
2023-04-19T00:59:30.262Z,2.35
2023-04-19T00:59:53.119Z,2.30
2023-04-19T01:00:16.489Z,2.10
2023-04-19T01:00:39.167Z,2.30
2023-04-19T01:01:02.485Z,2.35
2023-04-19T01:01:25.323Z,2.10
2023-04-19T01:01:48.265Z,2.03
2023-04-19T01:02:11.222Z,2.17
2023-04-19T01:02:34.053Z,2.40
2023-04-19T01:02:56.904Z,2.40
2023-04-19T01:03:20.695Z,2.08
2023-04-19T01:03:43.817Z,2.00
2023-04-19T01:04:06.777Z,2.13
2023-04-19T01:04:29.782Z,2.20
2023-04-19T01:04:52.913Z,2.00
2023-04-19T01:05:15.817Z,2.20
2023-04-19T01:05:38.469Z,2.03
2023-04-19T01:06:01.192Z,2.00
2023-04-19T01:06:23.972Z,2.10
2023-04-19T01:06:49.122Z,2.10
2023-04-19T01:07:11.868Z,2.17
2023-04-19T01:07:35.248Z,2.10
2023-04-19T01:07:58.327Z,2.05
2023-04-19T01:08:21.029Z,2.00
2023-04-19T01:08:43.706Z,2.15
2023-04-19T01:09:06.642Z,2.00
2023-04-19T01:09:29.789Z,2.00
2023-04-19T01:09:52.564Z,2.08
2023-04-19T01:10:16.792Z,2.15
2023-04-19T01:10:39.516Z,1.88
2023-04-19T01:11:02.826Z,2.20
2023-04-19T01:11:25.716Z,2.10
2023-04-19T01:11:48.481Z,2.00
2023-04-19T01:12:11.282Z,1.83
2023-04-19T01:12:34.119Z,2.00
2023-04-19T01:12:57.001Z,2.00
2023-04-19T01:13:19.844Z,2.17
2023-04-19T01:13:42.599Z,1.90
2023-04-19T01:14:05.283Z,1.75
2023-04-19T01:14:28.336Z,1.70
2023-04-19T01:14:51.051Z,2.13
2023-04-19T01:15:13.760Z,2.00
2023-04-19T01:15:36.568Z,1.92
2023-04-19T01:15:59.519Z,2.05
2023-04-19T01:16:22.415Z,2.05
2023-04-19T01:16:45.928Z,1.83
2023-04-19T01:17:08.909Z,2.08
2023-04-19T01:17:33.343Z,1.85
2023-04-19T01:17:56.691Z,1.90
2023-04-19T01:18:19.560Z,1.90
2023-04-19T01:18:42.326Z,1.80
2023-04-19T01:19:05.117Z,1.92
2023-04-19T01:19:27.848Z,2.10
2023-04-19T01:19:50.708Z,2.10
2023-04-19T01:20:13.940Z,2.10
2023-04-19T01:20:36.642Z,2.13
2023-04-19T01:20:59.502Z,1.98
2023-04-19T01:21:22.743Z,2.00
2023-04-19T01:21:46.496Z,1.60
2023-04-19T01:22:09.722Z,1.85
2023-04-19T01:22:33.932Z,2.00
2023-04-19T01:22:56.750Z,2.00
2023-04-19T01:23:19.494Z,1.83
2023-04-19T01:23:42.317Z,1.85
2023-04-19T01:24:05.487Z,1.85
2023-04-19T01:24:28.147Z,1.70
2023-04-19T01:24:51.441Z,1.92
2023-04-19T01:25:14.222Z,1.90
2023-04-19T01:25:36.847Z,1.83
2023-04-19T01:26:01.331Z,2.08
2023-04-19T01:26:24.731Z,1.92
2023-04-19T01:26:48.175Z,2.00
2023-04-19T01:27:11.544Z,2.00
2023-04-19T01:27:34.244Z,1.90
2023-04-19T01:27:56.967Z,2.00
2023-04-19T01:28:19.770Z,1.80
2023-04-19T01:28:42.613Z,1.90
2023-04-19T01:29:05.343Z,1.75
2023-04-19T01:29:28.064Z,2.03
2023-04-19T01:29:50.883Z,2.00
2023-04-19T01:30:13.979Z,2.00
2023-04-19T01:30:36.880Z,1.90
2023-04-19T01:30:59.993Z,1.80
2023-04-19T01:31:22.803Z,1.90
2023-04-19T01:31:49.393Z,2.10
2023-04-19T01:32:13.870Z,1.85
2023-04-19T01:32:36.607Z,1.80
2023-04-19T01:32:59.582Z,2.08
2023-04-19T01:33:22.414Z,1.90
2023-04-19T01:33:45.162Z,1.85
2023-04-19T01:34:07.842Z,1.70
2023-04-19T01:34:30.583Z,1.85
2023-04-19T01:34:53.411Z,2.00
2023-04-19T01:35:16.311Z,2.10
2023-04-19T01:35:39.038Z,1.90
2023-04-19T01:36:01.767Z,1.90
2023-04-19T01:36:24.480Z,1.98
2023-04-19T01:36:47.287Z,2.10
2023-04-19T01:37:09.997Z,2.00
2023-04-19T01:37:37.147Z,2.00
2023-04-19T01:37:59.868Z,1.98
2023-04-19T01:38:22.553Z,2.10
2023-04-19T01:38:47.849Z,1.85
2023-04-19T01:39:11.056Z,1.85
2023-04-19T01:39:33.929Z,2.15
2023-04-19T01:39:56.661Z,2.10
2023-04-19T01:40:20.021Z,1.90
2023-04-19T01:40:42.815Z,2.00
2023-04-19T01:41:05.775Z,2.20
2023-04-19T01:41:29.835Z,2.20
2023-04-19T01:41:52.651Z,2.03
2023-04-19T01:42:16.480Z,2.00
2023-04-19T01:42:39.195Z,2.13
2023-04-19T01:43:01.922Z,2.10
2023-04-19T01:43:24.645Z,2.20
2023-04-19T01:43:47.472Z,2.00
2023-04-19T01:44:10.402Z,2.00
2023-04-19T01:44:33.356Z,2.00
2023-04-19T01:44:56.147Z,2.03
2023-04-19T01:45:18.940Z,2.10
2023-04-19T01:45:41.642Z,2.20
2023-04-19T01:46:04.389Z,2.00
2023-04-19T01:46:27.073Z,2.15
2023-04-19T01:46:49.982Z,1.83
2023-04-19T01:47:12.997Z,2.00
2023-04-19T01:47:36.100Z,1.90
2023-04-19T01:47:59.603Z,2.15
2023-04-19T01:48:22.353Z,2.00
2023-04-19T01:48:45.646Z,2.10
2023-04-19T01:49:08.507Z,2.10
2023-04-19T01:49:31.247Z,1.92
2023-04-19T01:49:54.123Z,2.00
2023-04-19T01:50:16.976Z,1.90
2023-04-19T01:50:39.744Z,1.95
2023-04-19T01:51:02.487Z,2.08
2023-04-19T01:51:25.277Z,1.85
2023-04-19T01:51:48.010Z,2.08
2023-04-19T01:52:10.777Z,2.25
2023-04-19T01:52:33.446Z,2.00
2023-04-19T01:52:57.620Z,2.10
2023-04-19T01:53:20.498Z,2.10
2023-04-19T01:53:43.244Z,2.10
2023-04-19T01:54:05.955Z,1.92
2023-04-19T01:54:28.660Z,2.10
2023-04-19T01:54:51.362Z,2.00
2023-04-19T01:55:14.125Z,2.13
2023-04-19T01:55:36.888Z,2.08
2023-04-19T01:55:59.622Z,2.30
2023-04-19T01:56:22.285Z,2.00
2023-04-19T01:56:45.326Z,2.03
2023-04-19T01:57:08.070Z,2.17
2023-04-19T01:57:30.776Z,1.95
2023-04-19T01:57:54.864Z,1.98
2023-04-19T01:58:17.602Z,2.20
2023-04-19T01:58:40.226Z,1.92
2023-04-19T01:59:04.175Z,2.10
2023-04-19T01:59:26.941Z,2.15
2023-04-19T01:59:50.358Z,2.10
2023-04-19T02:00:15.247Z,2.10
2023-04-19T02:00:38.064Z,2.10
2023-04-19T02:01:01.073Z,2.00
2023-04-19T02:01:24.270Z,2.25
2023-04-19T02:01:47.076Z,2.00
2023-04-19T02:02:10.087Z,2.10
2023-04-19T02:02:33.268Z,2.10
2023-04-19T02:02:56.624Z,2.20
2023-04-19T02:03:19.657Z,2.17
2023-04-19T02:03:42.974Z,2.17
2023-04-19T02:04:08.048Z,2.22
2023-04-19T02:04:30.893Z,2.17
2023-04-19T02:04:53.948Z,2.33
2023-04-19T02:05:16.862Z,2.40
2023-04-19T02:05:39.697Z,2.20
2023-04-19T02:06:02.537Z,2.22
2023-04-19T02:06:27.062Z,2.20
2023-04-19T02:06:49.897Z,2.10
2023-04-19T02:07:12.577Z,2.20
2023-04-19T02:07:35.446Z,2.30
2023-04-19T02:08:01.542Z,2.35
2023-04-19T02:08:24.322Z,2.22
2023-04-19T02:08:47.027Z,2.10
2023-04-19T02:09:09.808Z,2.30
2023-04-19T02:09:35.683Z,2.38
2023-04-19T02:10:01.467Z,2.47
2023-04-19T02:10:24.577Z,2.10
2023-04-19T02:10:47.321Z,2.28
2023-04-19T02:11:10.429Z,2.25
2023-04-19T02:11:33.172Z,2.40
2023-04-19T02:11:55.851Z,2.22
2023-04-19T02:12:18.654Z,2.30
2023-04-19T02:12:41.934Z,2.40
2023-04-19T02:13:04.649Z,2.38
2023-04-19T02:13:27.478Z,2.53
2023-04-19T02:13:50.286Z,2.17
2023-04-19T02:14:13.225Z,2.28
2023-04-19T02:14:36.404Z,2.25
2023-04-19T02:14:59.692Z,2.20
2023-04-19T02:15:22.619Z,2.40
2023-04-19T02:15:45.414Z,2.60
2023-04-19T02:16:08.378Z,2.58
2023-04-19T02:16:31.953Z,2.72
2023-04-19T02:16:55.968Z,2.42
2023-04-19T02:17:18.973Z,2.70
2023-04-19T02:17:41.663Z,2.38
2023-04-19T02:18:07.051Z,2.50
2023-04-19T02:18:29.987Z,2.42
2023-04-19T02:18:53.382Z,2.60
2023-04-19T02:19:16.063Z,2.53
2023-04-19T02:19:38.799Z,2.67
2023-04-19T02:20:01.458Z,2.58
2023-04-19T02:20:24.827Z,2.50
2023-04-19T02:20:47.693Z,2.47
2023-04-19T02:21:11.231Z,2.72
2023-04-19T02:21:33.987Z,2.60
2023-04-19T02:21:57.972Z,2.63
2023-04-19T02:22:20.730Z,2.70
2023-04-19T02:22:44.247Z,2.60
2023-04-19T02:23:08.432Z,2.45
2023-04-19T02:23:31.178Z,2.33
2023-04-19T02:23:54.005Z,2.42
2023-04-19T02:24:17.098Z,2.60
2023-04-19T02:24:40.109Z,2.72
2023-04-19T02:25:02.810Z,2.45
2023-04-19T02:25:25.507Z,2.40
2023-04-19T02:25:48.278Z,2.67
2023-04-19T02:26:11.692Z,2.55
2023-04-19T02:26:34.413Z,2.40
2023-04-19T02:26:57.173Z,2.63
2023-04-19T02:27:19.937Z,2.78
2023-04-19T02:27:42.710Z,2.70
2023-04-19T02:28:05.968Z,2.78
2023-04-19T02:28:28.779Z,2.85
2023-04-19T02:28:52.038Z,2.90
2023-04-19T02:29:16.970Z,2.83
2023-04-19T02:29:39.685Z,2.47
2023-04-19T02:30:02.772Z,2.70
2023-04-19T02:30:25.479Z,2.83
2023-04-19T02:30:48.168Z,2.60
2023-04-19T02:31:11.249Z,2.78
2023-04-19T02:31:33.985Z,2.70
2023-04-19T02:31:56.881Z,2.85
2023-04-19T02:32:19.852Z,2.92
2023-04-19T02:32:42.617Z,2.78
2023-04-19T02:33:05.421Z,2.70
2023-04-19T02:33:29.517Z,2.60
2023-04-19T02:33:52.274Z,2.70
2023-04-19T02:34:15.290Z,2.90
2023-04-19T02:34:38.327Z,3.00
2023-04-19T02:35:01.123Z,2.92
2023-04-19T02:35:23.989Z,3.03
2023-04-19T02:35:46.767Z,2.72
2023-04-19T02:36:09.894Z,2.70
2023-04-19T02:36:33.801Z,2.80
2023-04-19T02:36:56.644Z,3.30
2023-04-19T02:37:19.594Z,2.95
2023-04-19T02:37:42.478Z,2.70
2023-04-19T02:38:05.227Z,2.80
2023-04-19T02:38:29.503Z,2.75
2023-04-19T02:38:52.361Z,2.92
2023-04-19T02:39:15.067Z,3.30
2023-04-19T02:39:37.888Z,2.80
2023-04-19T02:40:00.573Z,2.75
2023-04-19T02:40:25.782Z,2.90
2023-04-19T02:40:49.401Z,2.78
2023-04-19T02:41:12.104Z,2.80
2023-04-19T02:41:34.842Z,2.60
2023-04-19T02:41:57.628Z,2.40
2023-04-19T02:42:20.671Z,2.63
2023-04-19T02:42:43.362Z,3.10
2023-04-19T02:43:06.102Z,2.95
2023-04-19T02:43:28.893Z,3.00
2023-04-19T02:43:51.683Z,2.90
2023-04-19T02:44:14.622Z,3.00
2023-04-19T02:44:37.782Z,2.88
2023-04-19T02:45:00.656Z,2.88
2023-04-19T02:45:23.411Z,3.00
2023-04-19T02:45:46.244Z,2.90
2023-04-19T02:46:10.791Z,3.10
2023-04-19T02:46:33.631Z,2.80
2023-04-19T02:46:57.813Z,2.88
2023-04-19T02:47:21.459Z,3.10
2023-04-19T02:47:46.462Z,3.20
2023-04-19T02:48:09.214Z,2.97
2023-04-19T02:48:31.987Z,3.05
2023-04-19T02:48:54.711Z,3.03
2023-04-19T02:49:17.389Z,3.30
2023-04-19T02:49:41.619Z,3.25
2023-04-19T02:50:04.995Z,3.33
2023-04-19T02:50:27.746Z,3.13
2023-04-19T02:50:50.577Z,3.13
2023-04-19T02:51:16.997Z,3.20
2023-04-19T02:51:39.735Z,3.15
2023-04-19T02:52:02.492Z,3.20
2023-04-19T02:52:26.876Z,3.03
2023-04-19T02:52:49.601Z,3.25
2023-04-19T02:53:12.490Z,3.20
2023-04-19T02:53:36.618Z,3.22
2023-04-19T02:53:59.330Z,3.20
2023-04-19T02:54:22.259Z,3.20
2023-04-19T02:54:45.941Z,3.08
2023-04-19T02:55:09.851Z,3.20
2023-04-19T02:55:33.283Z,3.47
2023-04-19T02:55:56.321Z,3.47
2023-04-19T02:56:19.045Z,3.35
2023-04-19T02:56:41.755Z,3.30
2023-04-19T02:57:04.548Z,3.17
2023-04-19T02:57:27.281Z,3.45
2023-04-19T02:57:50.245Z,3.50
2023-04-19T02:58:13.689Z,3.60
2023-04-19T02:58:36.500Z,3.50
2023-04-19T02:59:01.170Z,3.20
2023-04-19T02:59:24.362Z,3.60
2023-04-19T02:59:47.054Z,3.45
2023-04-19T03:00:12.644Z,3.50
2023-04-19T03:00:35.692Z,3.67
2023-04-19T03:00:58.639Z,3.10
2023-04-19T03:01:21.484Z,3.30
2023-04-19T03:01:44.198Z,3.53
2023-04-19T03:02:07.258Z,3.70
2023-04-19T03:02:30.065Z,3.65
2023-04-19T03:02:53.173Z,3.47
2023-04-19T03:03:16.197Z,3.30
2023-04-19T03:03:41.515Z,3.40
2023-04-19T03:04:04.622Z,3.30
2023-04-19T03:04:29.054Z,3.53
2023-04-19T03:04:53.286Z,3.67
2023-04-19T03:05:16.025Z,3.40
2023-04-19T03:05:38.719Z,3.58
2023-04-19T03:06:01.451Z,3.50
2023-04-19T03:06:24.164Z,3.22
2023-04-19T03:06:46.942Z,3.17
2023-04-19T03:07:10.296Z,3.33
2023-04-19T03:07:33.153Z,3.17
2023-04-19T03:07:55.831Z,3.30
2023-04-19T03:08:18.543Z,3.53
2023-04-19T03:08:42.854Z,3.45
2023-04-19T03:09:05.797Z,3.60
2023-04-19T03:09:28.476Z,3.60
2023-04-19T03:09:51.353Z,3.50
2023-04-19T03:10:14.083Z,3.50
2023-04-19T03:10:36.821Z,3.50
2023-04-19T03:10:59.590Z,3.78
2023-04-19T03:11:22.721Z,3.55
2023-04-19T03:11:45.434Z,3.65
2023-04-19T03:12:08.665Z,3.20
2023-04-19T03:12:31.522Z,3.40
2023-04-19T03:12:54.243Z,3.50
2023-04-19T03:13:16.962Z,3.38
2023-04-19T03:13:41.002Z,3.40
2023-04-19T03:14:03.740Z,3.45
2023-04-19T03:14:27.053Z,3.30
2023-04-19T03:14:49.730Z,3.65
2023-04-19T03:15:12.564Z,3.38
2023-04-19T03:15:35.348Z,3.53
2023-04-19T03:15:58.080Z,3.72
2023-04-19T03:16:21.584Z,3.75
2023-04-19T03:16:44.689Z,3.60
2023-04-19T03:17:07.289Z,3.50
2023-04-19T03:17:30.053Z,3.40
2023-04-19T03:17:52.851Z,3.42
2023-04-19T03:18:17.162Z,3.50
2023-04-19T03:18:39.866Z,3.40
2023-04-19T03:19:02.952Z,3.50
2023-04-19T03:19:25.757Z,3.63
2023-04-19T03:19:48.440Z,3.40
2023-04-19T03:20:12.174Z,3.38
2023-04-19T03:20:34.945Z,3.42
2023-04-19T03:20:57.663Z,3.40
2023-04-19T03:21:20.474Z,3.72
2023-04-19T03:21:43.347Z,3.80
2023-04-19T03:22:06.110Z,3.80
2023-04-19T03:22:28.949Z,3.70
2023-04-19T03:22:51.760Z,3.63
2023-04-19T03:23:14.465Z,3.70
2023-04-19T03:23:37.480Z,4.05
2023-04-19T03:24:02.244Z,3.53
2023-04-19T03:24:29.321Z,3.90
2023-04-19T03:24:52.174Z,3.90
2023-04-19T03:25:14.980Z,3.92
2023-04-19T03:25:37.776Z,3.83
2023-04-19T03:26:00.473Z,3.90
2023-04-19T03:26:23.211Z,3.60
2023-04-19T03:26:48.412Z,3.42
2023-04-19T03:27:11.184Z,3.60
2023-04-19T03:27:36.153Z,3.75
2023-04-19T03:27:59.015Z,3.88
2023-04-19T03:28:21.730Z,4.03
2023-04-19T03:28:44.540Z,3.97
2023-04-19T03:29:07.286Z,3.78
2023-04-19T03:29:30.084Z,3.50
2023-04-19T03:29:52.956Z,3.60
2023-04-19T03:30:15.935Z,3.67
2023-04-19T03:30:38.812Z,4.00
2023-04-19T03:31:01.557Z,3.70
2023-04-19T03:31:24.472Z,3.95
2023-04-19T03:31:47.553Z,4.30
2023-04-19T03:32:10.480Z,4.30
2023-04-19T03:32:33.213Z,3.72
2023-04-19T03:32:58.701Z,3.80
2023-04-19T03:33:21.466Z,3.58
2023-04-19T03:33:44.181Z,4.00
2023-04-19T03:34:06.864Z,4.10
2023-04-19T03:34:29.599Z,3.72
2023-04-19T03:34:52.256Z,3.90
2023-04-19T03:35:14.976Z,3.72
2023-04-19T03:35:37.770Z,3.80
2023-04-19T03:36:00.473Z,3.63
2023-04-19T03:36:23.166Z,3.72
2023-04-19T03:36:45.966Z,3.47
2023-04-19T03:37:08.674Z,3.80
2023-04-19T03:37:31.403Z,3.63
2023-04-19T03:37:54.095Z,3.85
2023-04-19T03:38:16.782Z,3.95
2023-04-19T03:38:40.886Z,3.78
2023-04-19T03:39:05.185Z,3.75
2023-04-19T03:39:28.538Z,3.65
2023-04-19T03:39:51.271Z,3.45
2023-04-19T03:40:14.077Z,4.00
2023-04-19T03:40:37.979Z,3.75
2023-04-19T03:41:00.687Z,3.60
2023-04-19T03:41:24.214Z,3.95
2023-04-19T03:41:47.023Z,4.25
2023-04-19T03:42:09.758Z,4.00
2023-04-19T03:42:32.466Z,4.07
2023-04-19T03:42:55.263Z,4.25
2023-04-19T03:43:18.002Z,4.05
2023-04-19T03:43:40.717Z,4.07
2023-04-19T03:44:03.417Z,3.90
2023-04-19T03:44:26.242Z,4.35
2023-04-19T03:44:48.957Z,4.30
2023-04-19T03:45:12.350Z,3.83
2023-04-19T03:45:35.189Z,3.92
2023-04-19T03:45:57.981Z,4.07
2023-04-19T03:46:21.583Z,3.70
2023-04-19T03:46:46.889Z,3.83
2023-04-19T03:47:10.029Z,3.80
2023-04-19T03:47:32.786Z,3.80
2023-04-19T03:47:55.543Z,4.10
2023-04-19T03:48:18.350Z,3.65
2023-04-19T03:48:41.106Z,3.55
2023-04-19T03:49:03.846Z,3.70
2023-04-19T03:49:26.658Z,4.00
2023-04-19T03:49:49.585Z,3.60
2023-04-19T03:50:12.330Z,4.15
2023-04-19T03:50:35.207Z,4.20
2023-04-19T03:50:57.928Z,4.10
2023-04-19T03:51:20.751Z,4.20
2023-04-19T03:51:43.494Z,4.40
2023-04-19T03:52:06.260Z,4.22
2023-04-19T03:52:31.521Z,4.30
2023-04-19T03:52:54.932Z,3.97
2023-04-19T03:53:19.133Z,4.03
2023-04-19T03:53:41.920Z,4.05
2023-04-19T03:54:06.273Z,3.88
2023-04-19T03:54:29.020Z,4.07
2023-04-19T03:54:51.749Z,4.13
2023-04-19T03:55:14.514Z,3.95
2023-04-19T03:55:37.246Z,4.25
2023-04-19T03:55:59.924Z,4.03
2023-04-19T03:56:25.111Z,4.18
2023-04-19T03:56:48.394Z,4.38
2023-04-19T03:57:13.433Z,4.55
2023-04-19T03:57:36.218Z,4.63
2023-04-19T03:57:58.943Z,4.00
2023-04-19T03:58:24.791Z,4.05
2023-04-19T03:58:47.598Z,4.22
2023-04-19T03:59:12.791Z,4.20
2023-04-19T03:59:35.639Z,4.25
2023-04-19T04:00:01.361Z,4.60
2023-04-19T04:00:24.508Z,4.10
2023-04-19T04:00:49.712Z,4.50
2023-04-19T04:01:21.497Z,4.28
2023-04-19T04:01:44.189Z,4.20
2023-04-19T04:02:07.046Z,4.53
2023-04-19T04:02:33.563Z,4.53
2023-04-19T04:02:56.661Z,4.03
2023-04-19T04:03:22.734Z,4.10
2023-04-19T04:03:48.615Z,4.18
2023-04-19T04:04:15.114Z,4.07
2023-04-19T04:04:38.532Z,4.00
2023-04-19T04:05:01.783Z,4.22
2023-04-19T04:05:24.696Z,4.40
2023-04-19T04:05:47.485Z,4.45
2023-04-19T04:06:10.288Z,4.30
2023-04-19T04:06:35.408Z,4.00
2023-04-19T04:07:00.549Z,4.03
2023-04-19T04:07:23.391Z,4.10
2023-04-19T04:07:46.717Z,4.20
2023-04-19T04:08:09.436Z,4.35
2023-04-19T04:08:32.166Z,4.22
2023-04-19T04:08:55.011Z,3.95
2023-04-19T04:09:22.262Z,4.35
2023-04-19T04:09:47.449Z,4.47
2023-04-19T04:10:12.999Z,4.22
2023-04-19T04:10:38.148Z,4.43
2023-04-19T04:11:00.887Z,4.35
2023-04-19T04:11:25.950Z,4.15
2023-04-19T04:11:48.714Z,4.10
2023-04-19T04:12:13.281Z,4.77
2023-04-19T04:12:36.027Z,4.85
2023-04-19T04:12:58.743Z,4.90
2023-04-19T04:13:21.472Z,4.47
2023-04-19T04:13:46.571Z,4.32
2023-04-19T04:14:09.352Z,4.43
2023-04-19T04:14:32.138Z,4.22
2023-04-19T04:14:57.854Z,4.82
2023-04-19T04:15:20.514Z,4.70
2023-04-19T04:15:43.286Z,4.30
2023-04-19T04:16:06.294Z,4.32
2023-04-19T04:16:29.324Z,4.30
2023-04-19T04:16:52.054Z,4.15
2023-04-19T04:17:14.875Z,4.50
2023-04-19T04:17:37.509Z,4.43
2023-04-19T04:18:00.350Z,4.32
2023-04-19T04:18:23.544Z,4.60
2023-04-19T04:18:46.232Z,4.55
2023-04-19T04:19:09.031Z,4.53
2023-04-19T04:19:31.668Z,4.70
2023-04-19T04:19:54.491Z,4.75
2023-04-19T04:20:17.334Z,4.90
2023-04-19T04:20:40.108Z,4.82
2023-04-19T04:21:02.929Z,4.43
2023-04-19T04:21:27.335Z,4.65
2023-04-19T04:21:50.239Z,4.68
2023-04-19T04:22:12.940Z,4.45
2023-04-19T04:22:35.682Z,4.90
2023-04-19T04:22:58.711Z,5.10
2023-04-19T04:23:22.068Z,4.78
2023-04-19T04:23:45.780Z,5.03
2023-04-19T04:24:08.552Z,5.07
2023-04-19T04:24:38.554Z,5.10
2023-04-19T04:25:02.385Z,5.10
2023-04-19T04:25:26.225Z,4.82
2023-04-19T04:25:56.030Z,4.63
2023-04-19T04:26:20.291Z,5.20
2023-04-19T04:26:43.149Z,4.60
2023-04-19T04:27:08.528Z,4.80
2023-04-19T04:27:31.283Z,5.13
2023-04-19T04:27:54.713Z,5.20
2023-04-19T04:28:17.424Z,5.15
2023-04-19T04:28:40.165Z,5.32
2023-04-19T04:29:05.430Z,5.00
2023-04-19T04:29:29.139Z,4.70
2023-04-19T04:29:51.946Z,5.10
2023-04-19T04:30:14.788Z,5.03
2023-04-19T04:30:38.249Z,4.88
2023-04-19T04:31:01.097Z,4.85
2023-04-19T04:31:24.349Z,4.88
2023-04-19T04:31:47.053Z,5.03
2023-04-19T04:32:10.680Z,5.35
2023-04-19T04:32:35.905Z,4.80
2023-04-19T04:32:59.101Z,5.13
2023-04-19T04:33:22.078Z,5.30
2023-04-19T04:33:46.093Z,5.07
2023-04-19T04:34:09.443Z,4.97
2023-04-19T04:34:33.452Z,5.07
2023-04-19T04:34:56.189Z,5.40
2023-04-19T04:35:19.048Z,5.75
2023-04-19T04:35:43.529Z,5.22
2023-04-19T04:36:09.724Z,5.05
2023-04-19T04:36:32.867Z,5.18
2023-04-19T04:36:56.169Z,5.00
2023-04-19T04:37:18.872Z,5.05
2023-04-19T04:37:41.605Z,5.03
2023-04-19T04:38:10.994Z,5.28
2023-04-19T04:38:41.146Z,4.90
2023-04-19T04:39:03.928Z,4.78
2023-04-19T04:39:27.318Z,5.10
2023-04-19T04:39:52.176Z,5.20
2023-04-19T04:40:16.183Z,5.40
2023-04-19T04:40:38.871Z,5.30
2023-04-19T04:41:01.705Z,4.93
2023-04-19T04:41:25.419Z,4.70
2023-04-19T04:41:50.238Z,5.07
2023-04-19T04:42:13.599Z,5.40
2023-04-19T04:42:37.943Z,5.30
2023-04-19T04:43:04.532Z,4.97
2023-04-19T04:43:29.944Z,4.72
2023-04-19T04:44:08.311Z,5.13
2023-04-19T04:44:34.282Z,5.25
2023-04-19T04:44:58.112Z,4.68
2023-04-19T04:45:21.492Z,4.82
2023-04-19T04:45:44.634Z,5.00
2023-04-19T04:46:07.702Z,4.90
2023-04-19T04:46:30.543Z,5.28
2023-04-19T04:46:53.281Z,5.07
2023-04-19T04:47:16.086Z,4.90
2023-04-19T04:47:38.824Z,4.97
2023-04-19T04:48:01.514Z,4.60
2023-04-19T04:48:24.381Z,4.55
2023-04-19T04:48:47.123Z,4.70
2023-04-19T04:49:09.873Z,4.82
2023-04-19T04:49:32.538Z,4.68
2023-04-19T04:49:55.295Z,4.88
2023-04-19T04:50:18.414Z,4.82
2023-04-19T04:50:41.120Z,4.55
2023-04-19T04:51:03.986Z,4.65
2023-04-19T04:51:27.434Z,4.80
2023-04-19T04:51:50.412Z,4.95
2023-04-19T04:52:13.208Z,4.90
2023-04-19T04:52:35.949Z,4.90
2023-04-19T04:52:58.774Z,5.32
2023-04-19T04:53:21.542Z,4.72
2023-04-19T04:53:44.260Z,4.88
2023-04-19T04:54:07.052Z,4.70
2023-04-19T04:54:31.960Z,4.85
2023-04-19T04:54:56.177Z,4.72
2023-04-19T04:55:19.074Z,4.90
2023-04-19T04:55:41.880Z,4.60
2023-04-19T04:56:05.005Z,4.57
2023-04-19T04:56:27.888Z,5.20
2023-04-19T04:56:51.119Z,5.22
2023-04-19T04:57:13.965Z,5.05
2023-04-19T04:57:36.821Z,4.88
2023-04-19T04:57:59.532Z,4.80
2023-04-19T04:58:24.835Z,4.70
2023-04-19T04:58:47.591Z,4.40
2023-04-19T04:59:12.651Z,4.75
2023-04-19T04:59:36.186Z,4.97
2023-04-19T05:00:01.143Z,4.72
2023-04-19T05:00:24.115Z,4.97
2023-04-19T05:00:49.342Z,4.47
2023-04-19T05:01:12.121Z,4.25
2023-04-19T05:01:34.920Z,4.60
2023-04-19T05:02:00.672Z,4.35
2023-04-19T05:02:24.242Z,4.75
2023-04-19T05:02:47.210Z,4.63
2023-04-19T05:03:10.138Z,4.43
2023-04-19T05:03:33.123Z,4.43
2023-04-19T05:03:56.391Z,4.68
2023-04-19T05:04:19.347Z,4.70
2023-04-19T05:04:42.154Z,4.35
2023-04-19T05:05:06.459Z,4.50
2023-04-19T05:05:29.213Z,4.60
2023-04-19T05:05:51.894Z,4.75
2023-04-19T05:06:14.571Z,4.90
2023-04-19T05:06:37.302Z,4.60
2023-04-19T05:07:00.017Z,4.50
2023-04-19T05:07:22.727Z,4.68
2023-04-19T05:07:46.080Z,4.43
2023-04-19T05:08:08.841Z,4.45
2023-04-19T05:08:31.819Z,4.53
2023-04-19T05:08:54.516Z,4.47
2023-04-19T05:09:17.344Z,4.43
2023-04-19T05:09:40.048Z,4.55
2023-04-19T05:10:04.314Z,4.53